Calhoun, IL (62419)

5:55 PM CST on February 11, 2016 (GMT -0600)
Olney-Noble | | Change Station
CLOSE
Current Station
Airport
Location: Olney-Noble,
Elevation: 482 ft
Nearby Weather Stations

Elev 482 ft 38.72 °N, 88.18 °W | Updated 20 minutes ago

Mostly Cloudy
Mostly Cloudy
27 °F
Feels Like 23 °F
N
4
Wind Variable Wind from NE

Today
High -- | Low -- °F
--% Chance of Precip.
Yesterday
High -- | Low -- °F
Precip. -- in
Pressure 30.33 in
Visibility 10.0 miles
Clouds Mostly Cloudy 12000 ft
Windchill 23 °F
Dew Point 9 °F
Humidity 47%
Rainfall 0.00 in
Snow Depth Not available.
6:48 AM 5:25 PM
Waxing Crescent, 15% visible
METAR KOLY 112335Z AUTO 05003KT 10SM BKN120 M03/M13 A3033 RMK AO2
Pressure 30.33 in
Visibility 10.0 miles
Clouds Mostly Cloudy 12000 ft
Windchill 23 °F
Dew Point 9 °F
Humidity 47%
Rainfall 0.00 in
Snow Depth Not available.
6:48 AM 5:25 PM
Waxing Crescent, 15% visible
METAR KOLY 112335Z AUTO 05003KT 10SM BKN120 M03/M13 A3033 RMK AO2

10-Day Weather Forecast

Almanac

Astronomy

Feb. 11, 2016 Rise Set
Actual Time
Civil Twilight
Nautical Twilight
Astronomical Twilight
Moon
Length of Visible Light
Length of Day
Tomorrow will be .
, % of the Moon is Illuminated

Today's Extremes

State Highs State Lows

Community

WunderPhotos

Upload Photos

1,892,180 photos uploaded!

WunderBlog® & News

Nearby

Air Quality

  Air Quality AQ Index Pollutant
Not available.

Snow Depth

Station Depth Elevation

Earthquake Activity

City Distance Mag. Time & Date
Minimum magnitude displayed is 2.5.

Coastal Water Temperatures

Place Temperature

Stations

Nearby Weather Stations

Station Location Temp. Windchill Dew Point Humidity Wind Precip. Elev Updated Type
                   

Watches & Warnings

There are currently no watches in effect.